This is the latest recevied weather packets stored in our database for station/object KC9DRE. If no packets are shown the sender has not sent any weather packets the latest 10 day(s).
| Time | Temp. | Humidity | Pressure | Rain* | Wind** | Luminosity | Snow |
|---|---|---|---|---|---|---|---|
| 1788122541 | 34.44° C | 46% | 1018.7 hPa | 0 mm | - | 378 W/m² | - |
| 1788122237 | 34.44° C | 44% | 1018.8 hPa | 0 mm | - | 519 W/m² | - |
| 1788121933 | 34.44° C | 46% | 1018.7 hPa | 0 mm | - | 516 W/m² | - |
| 1788121632 | 34.44° C | 46% | 1019 hPa | 0 mm | - | 550 W/m² | - |
| 1788121328 | 34.44° C | 45% | 1018.9 hPa | 0 mm | - | 547 W/m² | - |
| 1788121027 | 34.44° C | 45% | 1019.1 hPa | 0 mm | - | 585 W/m² | - |
| 1788120722 | 34.44° C | 46% | 1019.2 hPa | 0 mm | - | 127 W/m² | - |
| 1788120417 | 35° C | 41% | 1019.1 hPa | 0 mm | - | 581 W/m² | - |
| 1788120117 | 34.44° C | 44% | 1019 hPa | 0 mm | - | 606 W/m² | - |
| 1788119812 | 33.89° C | 46% | 1019.2 hPa | 0 mm | - | 621 W/m² | - |
| 1788119511 | 34.44° C | 45% | 1019.1 hPa | 0 mm | - | 642 W/m² | - |
| 1788119209 | 33.89° C | 48% | 1019.1 hPa | 0 mm | - | 654 W/m² | - |
| 1788118904 | 34.44° C | 43% | 1019 hPa | 0 mm | - | 474 W/m² | - |
| 1788118599 | 35.56° C | 42% | 1019.3 hPa | 0 mm | - | 179 W/m² | - |
| 1788118298 | 35.56° C | 42% | 1019.3 hPa | 0 mm | - | 698 W/m² | - |
| 1788117995 | 35° C | 45% | 1019.3 hPa | 0 mm | - | 702 W/m² | - |
| 1788117695 | 35° C | 46% | 1019.4 hPa | 0 mm | - | 701 W/m² | - |
| 1788117390 | 35° C | 47% | 1019.5 hPa | 0 mm | - | 704 W/m² | - |
| 1788117085 | 35° C | 45% | 1019.6 hPa | 0 mm | - | 726 W/m² | - |
| 1788116781 | 34.44° C | 46% | 1019.7 hPa | 0 mm | - | 781 W/m² | - |
| 1788116476 | 33.89° C | 47% | 1019.9 hPa | 0 mm | - | 763 W/m² | - |
| 1788116174 | 33.89° C | 45% | 1020 hPa | 0 mm | - | 787 W/m² | - |
| 1788115871 | 34.44° C | 45% | 1020 hPa | 0 mm | - | 173 W/m² | - |
| 1788115570 | 34.44° C | 46% | 1020 hPa | 0 mm | - | 518 W/m² | - |
| 1788115270 | 34.44° C | 43% | 1019.9 hPa | 0 mm | - | 178 W/m² | - |
* Rain latest hour (hover to see other rain measurements)
** Current wind speed in m/s (hover to see current wind gust speed)